createdAt,value
2023-03-05T08:04:05.810Z,101372.38
2023-03-05T08:06:32.303Z,101364.53
2023-03-05T08:08:59.092Z,101373.06
2023-03-05T08:11:26.372Z,101385.38
2023-03-05T08:13:52.742Z,101380.28
2023-03-05T08:16:20.874Z,101387.03
2023-03-05T08:18:47.623Z,101404.69
2023-03-05T08:21:23.401Z,101382.97
2023-03-05T08:23:49.791Z,101397.78
2023-03-05T08:26:20.347Z,101394.66
2023-03-05T08:28:47.149Z,101389.63
2023-03-05T08:31:14.958Z,101388.16
2023-03-05T08:33:41.650Z,101389.44
2023-03-05T08:36:09.308Z,101377.50
2023-03-05T08:38:36.347Z,101386.72
2023-03-05T08:41:03.365Z,101385.78
2023-03-05T08:43:30.737Z,101374.66
2023-03-05T08:45:59.168Z,101367.38
2023-03-05T08:48:25.445Z,101362.00
2023-03-05T08:50:52.684Z,101350.34
2023-03-05T08:53:19.060Z,101369.22
2023-03-05T08:58:38.139Z,101375.81
2023-03-05T09:01:05.918Z,101373.69
2023-03-05T09:03:33.287Z,101368.16
2023-03-05T09:06:07.089Z,101378.97
2023-03-05T09:08:34.866Z,101365.66
2023-03-05T09:11:06.552Z,101364.72
2023-03-05T09:13:34.167Z,101364.78
2023-03-05T09:16:03.941Z,101379.50
2023-03-05T09:18:37.667Z,101375.75
2023-03-05T09:21:07.028Z,101364.00
2023-03-05T09:23:34.204Z,101357.69
2023-03-05T09:26:01.343Z,101365.16
2023-03-05T09:28:31.553Z,101360.78
2023-03-05T09:36:56.156Z,101380.03
2023-03-05T09:39:25.834Z,101378.06
2023-03-05T09:42:30.269Z,101376.50
2023-03-05T09:46:13.724Z,101358.97
2023-03-05T09:49:24.472Z,101368.97
2023-03-05T09:52:00.635Z,101375.94
2023-03-05T09:55:16.701Z,101351.50
2023-03-05T10:01:49.112Z,101338.94
2023-03-05T10:04:31.390Z,101364.63
2023-03-05T10:07:48.841Z,101352.97
2023-03-05T10:13:36.193Z,101360.94
2023-03-05T10:25:41.172Z,101370.06
2023-03-05T10:28:20.336Z,101370.56
2023-03-05T10:31:01.724Z,101347.69
2023-03-05T10:33:57.193Z,101363.28
2023-03-05T10:36:33.207Z,101357.81
2023-03-05T10:39:32.741Z,101369.59
2023-03-05T10:42:18.360Z,101359.88
2023-03-05T10:44:51.025Z,101353.03
2023-03-05T10:47:55.339Z,101350.84
2023-03-05T10:50:26.130Z,101349.97
2023-03-05T10:53:15.934Z,101354.22
2023-03-05T10:55:43.012Z,101354.94
2023-03-05T10:58:14.894Z,101356.75
2023-03-05T11:01:00.772Z,101347.25
2023-03-05T11:03:47.922Z,101343.44
2023-03-05T11:06:15.917Z,101328.00
2023-03-05T11:08:43.030Z,101337.75
2023-03-05T11:11:10.062Z,101339.44
2023-03-05T11:13:57.348Z,101333.38
2023-03-05T11:16:29.845Z,101325.53
2023-03-05T11:19:24.969Z,101326.94
2023-03-05T11:22:12.962Z,101321.59
2023-03-05T11:24:41.722Z,101309.06
2023-03-05T11:27:32.188Z,101317.34
2023-03-05T11:29:59.524Z,101312.13
2023-03-05T11:32:28.693Z,101299.44
2023-03-05T11:34:56.941Z,101292.41
2023-03-05T11:37:25.925Z,101289.25
2023-03-05T11:40:22.915Z,101285.84
2023-03-05T11:42:57.437Z,101278.16
2023-03-05T11:45:26.756Z,101272.53
2023-03-05T11:47:57.828Z,101269.81
2023-03-05T11:50:26.684Z,101268.38
2023-03-05T11:53:19.247Z,101254.03
2023-03-05T11:55:54.890Z,101254.53
2023-03-05T11:58:44.030Z,101245.06
2023-03-05T12:01:32.484Z,101250.31
2023-03-05T12:04:00.796Z,101239.94
2023-03-05T12:06:41.153Z,101254.06
2023-03-05T12:09:21.961Z,101245.03
2023-03-05T12:11:52.548Z,101239.81
2023-03-05T12:14:36.149Z,101242.72
2023-03-05T12:17:17.795Z,101235.06
2023-03-05T12:20:07.063Z,101235.41
2023-03-05T12:22:39.670Z,101214.63
2023-03-05T12:25:45.255Z,101232.34
2023-03-05T12:28:17.913Z,101220.38
2023-03-05T12:30:44.965Z,101214.34
2023-03-05T12:33:32.137Z,101208.44
2023-03-05T12:36:17.946Z,101211.47
2023-03-05T12:38:47.884Z,101194.78
2023-03-05T12:41:25.406Z,101190.50
2023-03-05T12:44:06.212Z,101192.44
2023-03-05T12:46:42.328Z,101173.91
2023-03-05T12:49:18.586Z,101168.81
2023-03-05T12:51:48.198Z,101165.31
2023-03-05T12:55:00.359Z,101163.53
2023-03-05T12:57:29.881Z,101146.47
2023-03-05T13:00:11.294Z,101144.72
2023-03-05T13:02:43.164Z,101149.34
2023-03-05T13:05:16.199Z,101140.72
2023-03-05T13:07:43.277Z,101133.41
2023-03-05T13:10:26.277Z,101134.66
2023-03-05T13:12:56.019Z,101128.59
2023-03-05T13:15:25.208Z,101128.91
2023-03-05T13:18:07.802Z,101122.19
2023-03-05T13:20:42.951Z,101118.69
2023-03-05T13:23:19.018Z,101121.22
2023-03-05T13:26:01.487Z,101104.97
2023-03-05T13:28:29.705Z,101112.63
2023-03-05T13:31:03.131Z,101090.78
2023-03-05T13:33:35.216Z,101109.28
2023-03-05T13:36:03.209Z,101108.66
2023-03-05T13:38:40.703Z,101087.44
2023-03-05T13:41:20.427Z,101093.22
2023-03-05T13:44:00.361Z,101085.88
2023-03-05T13:46:30.889Z,101080.94
2023-03-05T13:49:16.991Z,101090.00
2023-03-05T13:51:45.853Z,101075.34
2023-03-05T13:54:17.720Z,101070.53
2023-03-05T13:57:03.078Z,101087.78
2023-03-05T13:59:35.171Z,101081.44
2023-03-05T14:02:06.136Z,101080.00
2023-03-05T14:04:40.244Z,101080.66
2023-03-05T14:07:33.873Z,101055.88
2023-03-05T14:10:05.517Z,101065.72
2023-03-05T14:12:43.056Z,101074.31
2023-03-05T14:15:26.937Z,101074.00
2023-03-05T14:18:19.054Z,101068.81
2023-03-05T14:21:01.680Z,101060.34
2023-03-05T14:23:53.879Z,101061.75
2023-03-05T14:26:35.584Z,101065.47
2023-03-05T14:29:17.965Z,101064.44
2023-03-05T14:32:00.678Z,101054.66
2023-03-05T14:34:41.106Z,101058.66
2023-03-05T14:37:17.917Z,101036.28
2023-03-05T14:39:58.321Z,101039.03
2023-03-05T14:42:31.569Z,101037.34
2023-03-05T14:45:16.040Z,101029.72
2023-03-05T14:47:43.916Z,101027.31
2023-03-05T14:50:16.477Z,101010.50
2023-03-05T14:52:44.694Z,101005.69
2023-03-05T14:55:17.460Z,101003.97
2023-03-05T14:57:44.729Z,101012.97
2023-03-05T15:00:22.408Z,101014.50
2023-03-05T15:02:49.890Z,101010.00
2023-03-05T15:05:20.476Z,101007.91
2023-03-05T15:07:49.023Z,101017.56
2023-03-05T15:10:18.740Z,101017.19
2023-03-05T15:12:53.500Z,100994.97
2023-03-05T15:15:22.214Z,101006.28
2023-03-05T15:17:55.466Z,101005.84
2023-03-05T15:20:25.668Z,101007.31
2023-03-05T15:22:53.460Z,101010.97
2023-03-05T15:25:22.796Z,101005.78
2023-03-05T15:27:51.239Z,101006.00
2023-03-05T15:30:30.719Z,101001.06
2023-03-05T15:33:01.224Z,101002.81
2023-03-05T15:35:28.457Z,100987.88
2023-03-05T15:37:55.848Z,100990.50
2023-03-05T15:40:23.010Z,100958.34
2023-03-05T15:42:50.625Z,100990.69
2023-03-05T15:45:18.311Z,100974.91
2023-03-05T15:47:45.427Z,100944.69
2023-03-05T15:50:12.536Z,100950.41
2023-03-05T15:52:39.593Z,100955.78
2023-03-05T15:55:07.261Z,100942.88
2023-03-05T15:57:38.429Z,100944.66
2023-03-05T16:00:07.904Z,100939.69
2023-03-05T16:02:35.121Z,100931.69
2023-03-05T16:05:02.255Z,100927.13
2023-03-05T16:07:30.905Z,100943.53
2023-03-05T16:10:00.096Z,100938.66
2023-03-05T16:12:31.792Z,100922.75
2023-03-05T16:14:58.923Z,100935.03
2023-03-05T16:17:26.242Z,100919.16
2023-03-05T16:19:56.064Z,100928.16
2023-03-05T16:22:24.102Z,100905.97
2023-03-05T16:24:51.268Z,100904.09
2023-03-05T16:27:18.368Z,100920.28
2023-03-05T16:29:46.354Z,100930.28
2023-03-05T16:32:13.465Z,100933.19
2023-03-05T16:34:40.628Z,100936.34
2023-03-05T16:37:07.664Z,100916.81
2023-03-05T16:39:34.918Z,100934.25
2023-03-05T16:42:02.122Z,100925.94
2023-03-05T16:44:29.130Z,100905.63
2023-03-05T16:46:56.700Z,100935.69
2023-03-05T16:49:24.348Z,100916.38
2023-03-05T16:51:51.419Z,100937.38
2023-03-05T16:54:18.508Z,100924.72
2023-03-05T16:56:45.656Z,100939.81
2023-03-05T16:59:12.769Z,100926.34
2023-03-05T17:01:39.764Z,100927.78
2023-03-05T17:04:07.902Z,100938.75
2023-03-05T17:06:35.111Z,100936.06
2023-03-05T17:09:03.147Z,100945.13
2023-03-05T17:11:30.480Z,100931.47
2023-03-05T17:14:00.514Z,100923.25
2023-03-05T17:16:27.639Z,100950.38
2023-03-05T17:19:15.689Z,100941.94
2023-03-05T17:21:43.031Z,100947.34
2023-03-05T17:24:10.903Z,100958.03
2023-03-05T17:26:38.833Z,100959.34
2023-03-05T17:29:19.204Z,100950.22
2023-03-05T17:31:50.580Z,100945.69
2023-03-05T17:34:18.364Z,100948.38
2023-03-05T17:36:50.284Z,100935.97
2023-03-05T17:39:21.034Z,100949.38
2023-03-05T17:41:48.196Z,100941.22
2023-03-05T17:44:15.204Z,100936.34
2023-03-05T17:46:42.263Z,100935.69
2023-03-05T17:49:09.300Z,100943.38
2023-03-05T17:51:38.061Z,100955.78
2023-03-05T17:54:05.962Z,100932.28
2023-03-05T17:56:33.241Z,100959.41
2023-03-05T17:59:00.676Z,100956.47
2023-03-05T18:01:33.766Z,100960.22
2023-03-05T18:04:01.423Z,100953.34
2023-03-05T18:06:29.112Z,100953.63
2023-03-05T18:08:56.174Z,100959.84
2023-03-05T18:11:23.573Z,100951.19
2023-03-05T18:13:51.065Z,100966.34
2023-03-05T18:16:18.558Z,100969.13
2023-03-05T18:18:46.229Z,100973.50
2023-03-05T18:21:13.451Z,100975.91
2023-03-05T18:23:40.522Z,100969.00
2023-03-05T18:26:07.540Z,100966.03
2023-03-05T18:28:36.630Z,100975.63
2023-03-05T18:31:03.805Z,100979.19
2023-03-05T18:33:30.918Z,100974.41
2023-03-05T18:35:58.283Z,100982.84
2023-03-05T18:38:28.761Z,100980.56
2023-03-05T18:40:57.024Z,100992.75
2023-03-05T18:43:25.270Z,100976.69
2023-03-05T18:45:54.575Z,100996.56
2023-03-05T18:48:22.783Z,100979.22
2023-03-05T18:50:51.743Z,100984.97
2023-03-05T18:53:18.990Z,100970.03
2023-03-05T18:55:46.217Z,100979.69
2023-03-05T18:58:16.192Z,100963.63
2023-03-05T19:00:45.381Z,100968.19
2023-03-05T19:03:13.281Z,100959.97
2023-03-05T19:05:41.353Z,100970.94
2023-03-05T19:08:08.806Z,100959.09
2023-03-05T19:10:36.512Z,100959.09
2023-03-05T19:13:16.107Z,100972.94
2023-03-05T19:15:43.508Z,100968.78
2023-03-05T19:18:10.763Z,100983.94
2023-03-05T19:20:37.900Z,100977.59
2023-03-05T19:23:04.906Z,100973.59
2023-03-05T19:25:32.060Z,100973.91
2023-03-05T19:27:59.246Z,100959.91
2023-03-05T19:30:26.284Z,100966.59
2023-03-05T19:32:53.489Z,100972.63
2023-03-05T19:35:20.713Z,100964.56
2023-03-05T19:37:49.297Z,100961.88
2023-03-05T19:40:16.489Z,100966.97
2023-03-05T19:42:43.636Z,100952.06
2023-03-05T19:45:11.284Z,100956.88
2023-03-05T19:47:38.318Z,100964.25
2023-03-05T19:50:06.408Z,100984.63
2023-03-05T19:52:33.692Z,100985.25
2023-03-05T19:55:02.362Z,100987.31
2023-03-05T19:57:29.638Z,100962.94
2023-03-05T19:59:56.963Z,100966.00
2023-03-05T20:02:24.247Z,100983.09
2023-03-05T20:04:51.487Z,100993.06
2023-03-05T20:07:18.611Z,100982.78
2023-03-05T20:09:46.077Z,100981.34
2023-03-05T20:12:13.491Z,100998.78
2023-03-05T20:14:40.594Z,100974.41
2023-03-05T20:17:07.694Z,100984.00
2023-03-05T20:19:34.989Z,100972.53
2023-03-05T20:22:04.593Z,100968.53
2023-03-05T20:24:31.674Z,100975.81
2023-03-05T20:27:00.332Z,100991.16
2023-03-05T20:29:27.403Z,100968.22
2023-03-05T20:31:56.660Z,100968.66
2023-03-05T20:34:27.383Z,100976.41
2023-03-05T20:36:54.661Z,100981.22
2023-03-05T20:39:21.834Z,100979.88
